Alexander, KS

10:28 PM CDT on October 24, 2014 (GMT -0500)
Sarrada Farms 2.0 N, 2.3 E | Change Station
CLOSE
Current Station
Personal Weather Station
Location: Rozel, KS
Elevation: 2073 ft
Nearby Weather Stations

Elev 2073 ft 38.22 °N, 99.36 °W | Updated 8 seconds ago

Clear
Clear
64.0 °F
Feels Like 64.0 °F
N
0.0
Wind Variable Wind from SSE
Gusts 0.0 mph

Today
High -- | Low -- °F
--% Chance of Precip.
Yesterday
High -- | Low -- °F
Precip. -- in
7:56 AM 6:47 PM
New Moon, 2% visible
Pressure 30.03 in
Visibility 10.0 miles
Clouds Clear
Dew Point 57 °F
Humidity 77%
Rainfall 0.00 in
Snow Depth Not available.
UV 0.0 out of 12
Pollen 3.30 out of 12
Air Quality Not available.
Flu Activity No Activity
METAR KHYS 250315Z AUTO 24004KT 10SM CLR 17/09 A3003 RMK AO1

More Conditions Fewer Conditions

Pressure 30.03 in
Visibility 10.0 miles
Clouds Clear
Dew Point 57 °F
Humidity 77%
Rainfall 0.00 in
Snow Depth Not available.
UV 0.0 out of 12
Pollen 3.30 out of 12
Air Quality Not available.
Flu Activity No Activity
METAR KHYS 250315Z AUTO 24004KT 10SM CLR 17/09 A3003 RMK AO1

More Conditions Fewer Conditions

10-Day Weather Forecast

Almanac

Astronomy

Oct. 24, 2014 Rise Set
Actual Time 7:56 AM CDT 6:47 PM CDT
Civil Twilight 7:29 AM CDT 7:14 PM CDT
Nautical Twilight 6:58 AM CDT 7:45 PM CDT
Astronomical Twilight 6:27 AM CDT 8:16 PM CDT
Moon 8:36 AM CDT (10/24) 7:29 PM CDT (10/24)
Length of Visible Light 11h 45m
Length of Day
10h 51m
Tomorrow will be 2m 18s shorter.
New Moon, 2% of the Moon is Illuminated
Today
New Moon
Oct 30
First Quarter
Nov 6
Full
Nov 14
Last Quarter
Nov 22
New

Today's Extremes

State Highs State Lows

Community

WunderPhotos

Upload Photos

1,764,769 photos uploaded!

Nearby

Snow Depth

Station Depth Elevation
No new snow has been reported.

Earthquake Activity

City Distance Mag. Time & Date
Mooreland, Oklahoma 139 miles 2.5 2:43 PM CDT
2014-10-24
Medford, Oklahoma 146 miles 2.6 12:44 PM CDT
2014-10-24
Mooreland, Oklahoma 138 miles 2.5 12:39 PM CDT
2014-10-24
Anthony, Kansas 133 miles 2.7 4:24 AM CDT
2014-10-24
Minimum magnitude displayed is 2.5.

Coastal Water Temperatures

Place Temperature
No Stations Reporting

Nearby Weather Stations